Kullen, Sweden

5:58 AM CEST on June 30, 2015 (GMT +0200)
IARILDNY2 | | Change Station
CLOSE
Current Station
Personal Weather Station
Location: Arild, Hoganas
Elevation: 151 ft
Nearby Weather Stations

Elev 151 ft 56.26 °N, 12.58 °E | Updated 12 minutes ago

Mostly Cloudy
Mostly Cloudy
55.4 °F
Feels Like 55.4 °F
N
13.0
Wind Variable Wind from West
Gusts 18.0 mph

Today
High -- | Low -- °F
--% Chance of Precip.
Yesterday
High -- | Low -- °F
Precip. -- in
4:25 AM 10:02 PM
Waxing Gibbous, 95% visible
Pressure 30.09 in
Visibility 6.2 miles
Clouds Mostly Cloudy 14000 ft
Dew Point 52 °F
Humidity 87%
Rainfall in
Snow Depth Not available.
UV 0 out of 12
Pollen Not available.
Air Quality Not available.
Flu Activity Not available.
METAR ESTA 300120Z AUTO 27008KT 9999 BKN140/// 14/12 Q1019

More Conditions Fewer Conditions

Pressure 30.09 in
Visibility 6.2 miles
Clouds Mostly Cloudy 14000 ft
Dew Point 52 °F
Humidity 87%
Rainfall in
Snow Depth Not available.
UV 0 out of 12
Pollen Not available.
Air Quality Not available.
Flu Activity Not available.
METAR ESTA 300120Z AUTO 27008KT 9999 BKN140/// 14/12 Q1019

More Conditions Fewer Conditions

10-Day Weather Forecast

×

Almanac

Astronomy

Jun. 30, 2015 Rise Set
Actual Time
Civil Twilight
Nautical Twilight
Astronomical Twilight
Moon
Length of Visible Light
Length of Day
Tomorrow will be .
, % of the Moon is Illuminated

Today's Extremes

Country Highs Country Lows

Community

WunderPhotos

Upload Photos

1,833,956 photos uploaded!

WunderBlogs® & News

Nearby

Air Quality

  Air Quality AQ Index Pollutant
Not available.

Snow Depth

Station Depth Elevation

Earthquake Activity

City Distance Mag. Time & Date
Minimum magnitude displayed is 2.5.

Coastal Water Temperatures

Place Temperature

Stations

Nearby Weather Stations

Station Location Temp. Windchill Dew Point Humidity Wind Precip. Elev Updated Type